Time;durP1;ratioP1;P1;durP2;ratioP2;P2;SDS_P1;SDS_P2;PMS_P1;PMS_P2;Temp;Humidity;BMP_temperature;BMP_pressure;BME280_temperature;BME280_humidity;BME280_pressure;Samples;Min_cycle;Max_cycle;Signal;HPM_P1;HPM_P2
2021/06/24 00:00:51;;;;;;;4.50;4.20;;;;;;;16.61;93.55;96692.50;5072905;28;20392;-72
2021/06/24 00:03:18;;;;;;;4.53;4.28;;;;;;;16.54;92.96;96689.25;5073266;28;20036;-73
2021/06/24 00:05:45;;;;;;;4.65;4.35;;;;;;;16.49;93.96;96683.91;5073030;28;20036;-72
2021/06/24 00:08:12;;;;;;;4.47;4.18;;;;;;;16.44;94.51;96684.63;5073145;28;20044;-72
2021/06/24 00:10:41;;;;;;;4.38;3.97;;;;;;;16.43;94.82;96688.34;5072285;28;20029;-72
2021/06/24 00:13:08;;;;;;;3.95;3.65;;;;;;;16.46;95.13;96693.13;5073075;28;20029;-72
2021/06/24 00:15:35;;;;;;;3.65;3.45;;;;;;;16.47;95.54;96678.84;5068653;28;20036;-73
2021/06/24 00:18:02;;;;;;;3.63;3.42;;;;;;;16.49;95.48;96678.63;5072139;28;20044;-72
2021/06/24 00:20:29;;;;;;;3.58;3.38;;;;;;;16.53;95.82;96677.06;5072862;28;20389;-72
2021/06/24 00:22:55;;;;;;;3.70;3.50;;;;;;;16.57;95.88;96681.63;5073061;28;20044;-72
2021/06/24 00:25:21;;;;;;;3.42;3.22;;;;;;;16.55;95.75;96677.63;5072978;28;20487;-72
2021/06/24 00:27:48;;;;;;;3.55;3.35;;;;;;;16.52;95.83;96684.19;5072763;28;20048;-72
2021/06/24 00:30:15;;;;;;;3.88;3.65;;;;;;;16.47;95.84;96672.78;5073197;28;20045;-72
2021/06/24 00:32:41;;;;;;;4.03;3.60;;;;;;;16.41;96.14;96674.56;5072723;28;20461;-72
2021/06/24 00:35:08;;;;;;;3.08;2.88;;;;;;;16.36;96.67;96663.94;5073374;28;20037;-72
2021/06/24 00:37:35;;;;;;;3.28;2.97;;;;;;;16.33;97.10;96667.06;5072985;28;20033;-72
2021/06/24 00:40:03;;;;;;;3.42;3.22;;;;;;;16.33;97.67;96657.28;5072968;28;20036;-72
2021/06/24 00:42:30;;;;;;;3.30;3.15;;;;;;;16.31;97.38;96655.94;5072731;28;20048;-72
2021/06/24 00:44:57;;;;;;;3.00;2.83;;;;;;;16.28;97.93;96644.00;5072810;28;20040;-72
2021/06/24 00:47:24;;;;;;;3.92;3.40;;;;;;;16.30;98.37;96638.47;5072759;28;20040;-72
2021/06/24 00:49:50;;;;;;;3.33;3.00;;;;;;;16.31;98.72;96640.03;5072296;28;20045;-73
2021/06/24 00:52:17;;;;;;;2.70;2.50;;;;;;;16.36;98.90;96646.19;5072503;28;20044;-72
2021/06/24 00:54:43;;;;;;;3.20;2.97;;;;;;;16.38;98.53;96649.41;5072303;28;20048;-72
2021/06/24 00:57:09;;;;;;;2.90;2.70;;;;;;;16.39;98.64;96652.84;5073204;28;20049;-72
2021/06/24 00:59:37;;;;;;;2.70;2.47;;;;;;;16.39;98.64;96650.19;5072476;28;20036;-72
2021/06/24 01:02:05;;;;;;;2.72;2.53;;;;;;;16.41;98.87;96650.75;5073056;28;20040;-73
2021/06/24 01:04:33;;;;;;;3.28;3.05;;;;;;;16.42;98.57;96654.97;5072233;28;20441;-72
2021/06/24 01:06:59;;;;;;;2.28;2.17;;;;;;;16.41;98.88;96661.31;5072504;28;20045;-72
2021/06/24 01:09:25;;;;;;;2.60;2.47;;;;;;;16.45;99.00;96646.53;5072568;28;20045;-73
2021/06/24 01:11:54;;;;;;;2.33;2.22;;;;;;;16.45;98.48;96659.78;5071800;28;20057;-74
2021/06/24 01:14:22;;;;;;;2.30;2.10;;;;;;;16.41;98.13;96650.75;5072053;28;20053;-73
2021/06/24 01:16:48;;;;;;;2.20;2.10;;;;;;;16.42;98.53;96661.09;5072339;28;20039;-73
2021/06/24 01:19:17;;;;;;;2.55;2.35;;;;;;;16.46;98.91;96655.28;5072615;28;20481;-73
2021/06/24 01:21:45;;;;;;;2.10;1.80;;;;;;;16.44;98.25;96640.47;5072619;28;20029;-73
2021/06/24 01:24:11;;;;;;;1.70;1.60;;;;;;;16.44;97.89;96648.41;5072401;28;20040;-74
2021/06/24 01:26:40;;;;;;;1.60;1.50;;;;;;;16.45;97.43;96633.31;5071250;28;20041;-73
2021/06/24 01:29:08;;;;;;;1.80;1.40;;;;;;;16.41;96.99;96642.78;5075816;28;20063;-73
2021/06/24 01:31:34;;;;;;;1.00;1.00;;;;;;;16.33;95.99;96632.66;5075598;28;20029;-73
2021/06/24 01:34:05;;;;;;;1.30;1.20;;;;;;;16.28;96.03;96625.47;5075187;28;20037;-73
2021/06/24 01:36:31;;;;;;;1.25;1.05;;;;;;;16.23;96.14;96628.88;5075808;28;20024;-73
2021/06/24 01:38:57;;;;;;;1.10;0.80;;;;;;;16.15;95.20;96618.72;5075835;28;20389;-73
2021/06/24 01:41:24;;;;;;;1.13;1.02;;;;;;;16.14;95.89;96616.31;5076142;28;20400;-73
2021/06/24 01:43:50;;;;;;;1.20;1.02;;;;;;;16.13;96.07;96610.25;5075646;28;20032;-73
2021/06/24 01:46:17;;;;;;;1.48;1.20;;;;;;;16.15;96.39;96610.78;5075569;28;20488;-73
2021/06/24 01:48:43;;;;;;;1.30;1.20;;;;;;;16.16;96.13;96614.22;5075733;28;20041;-73
2021/06/24 01:51:10;;;;;;;1.98;1.30;;;;;;;16.16;95.69;96604.44;5075395;28;20040;-73
2021/06/24 01:53:36;;;;;;;1.73;1.30;;;;;;;16.19;95.86;96600.50;5075321;28;20037;-74
2021/06/24 01:56:03;;;;;;;1.20;1.10;;;;;;;16.22;95.92;96600.00;5074618;28;20059;-73
2021/06/24 01:58:29;;;;;;;2.50;1.20;;;;;;;16.23;95.54;96599.75;5075738;28;20532;-73
2021/06/24 02:00:58;;;;;;;1.88;1.30;;;;;;;16.24;95.34;96597.91;5075402;28;20374;-74
2021/06/24 02:03:25;;;;;;;1.25;1.10;;;;;;;16.28;95.21;96603.50;5075312;28;20040;-75
2021/06/24 02:05:57;;;;;;;1.10;1.10;;;;;;;16.29;94.89;96586.56;5073908;28;20033;-74
2021/06/24 02:08:25;;;;;;;1.75;1.20;;;;;;;16.31;94.96;96595.84;5070386;28;20036;-75
2021/06/24 02:10:53;;;;;;;1.70;0.90;;;;;;;16.32;94.86;96589.53;5074602;28;20412;-74
2021/06/24 02:13:19;;;;;;;0.93;0.93;;;;;;;16.30;93.79;96588.19;5074980;28;20049;-75
2021/06/24 02:15:45;;;;;;;1.40;1.15;;;;;;;16.27;93.76;96584.16;5074912;28;20044;-73
2021/06/24 02:18:12;;;;;;;1.35;1.25;;;;;;;16.23;94.08;96588.34;5075121;28;20036;-73
2021/06/24 02:20:40;;;;;;;1.10;1.00;;;;;;;16.23;94.01;96585.72;5074711;28;20041;-73
2021/06/24 02:23:08;;;;;;;1.20;1.10;;;;;;;16.24;93.88;96587.31;5074751;28;20473;-73
2021/06/24 02:25:35;;;;;;;1.02;1.02;;;;;;;16.24;93.75;96598.69;5074560;28;20381;-73
2021/06/24 02:28:01;;;;;;;1.10;1.10;;;;;;;16.25;93.45;96594.19;5074958;28;20040;-74
2021/06/24 02:30:28;;;;;;;1.00;1.00;;;;;;;16.18;93.15;96596.25;5074422;28;20040;-73
2021/06/24 02:32:54;;;;;;;1.00;1.00;;;;;;;16.12;92.86;96587.47;5073478;28;20401;-73
2021/06/24 02:35:21;;;;;;;0.90;0.90;;;;;;;16.07;92.63;96595.38;5074916;28;20032;-74
2021/06/24 02:37:48;;;;;;;1.00;0.90;;;;;;;16.04;93.02;96593.19;5064640;28;20489;-73
2021/06/24 02:40:16;;;;;;;1.20;1.10;;;;;;;16.00;92.45;96606.16;5074916;28;20044;-73
2021/06/24 02:42:44;;;;;;;1.35;1.00;;;;;;;15.93;92.33;96602.09;5074214;28;20048;-73
2021/06/24 02:45:12;;;;;;;1.42;1.02;;;;;;;15.85;92.59;96605.16;5074416;28;20040;-74
2021/06/24 02:47:39;;;;;;;1.13;1.00;;;;;;;15.86;92.70;96598.84;5066626;28;20040;-74
2021/06/24 02:50:07;;;;;;;1.55;0.95;;;;;;;15.83;92.73;96600.13;5074375;28;20033;-73
2021/06/24 02:52:33;;;;;;;1.17;1.10;;;;;;;15.86;93.04;96599.63;5074439;28;20040;-73
2021/06/24 02:54:59;;;;;;;1.67;0.80;;;;;;;15.90;93.10;96602.59;5074074;28;20061;-73
2021/06/24 02:57:26;;;;;;;1.10;1.00;;;;;;;15.93;92.95;96608.16;5074164;28;20053;-73
2021/06/24 02:59:53;;;;;;;2.67;0.90;;;;;;;15.95;92.87;96605.28;5074231;28;20040;-73
2021/06/24 03:02:19;;;;;;;2.60;0.82;;;;;;;15.98;92.62;96602.13;5073840;28;20439;-73
2021/06/24 03:04:45;;;;;;;1.13;0.80;;;;;;;16.00;92.56;96600.84;5074473;28;20103;-73
2021/06/24 03:07:12;;;;;;;2.00;1.02;;;;;;;16.03;92.40;96594.25;5073432;28;20377;-73
2021/06/24 03:09:39;;;;;;;1.23;0.75;;;;;;;16.02;92.05;96596.13;5074210;28;20385;-73
2021/06/24 03:12:06;;;;;;;1.67;0.77;;;;;;;16.05;92.13;96600.09;5073356;28;20044;-73
2021/06/24 03:14:32;;;;;;;1.08;1.08;;;;;;;16.05;91.89;96597.47;5073651;28;20047;-75
2021/06/24 03:16:58;;;;;;;0.75;0.75;;;;;;;16.07;91.67;96591.94;5073739;28;20044;-74
2021/06/24 03:19:25;;;;;;;2.25;1.00;;;;;;;16.08;91.54;96593.50;5073605;28;20039;-73
2021/06/24 03:21:52;;;;;;;0.95;0.95;;;;;;;16.07;91.46;96590.06;5073678;28;20489;-73
2021/06/24 03:24:18;;;;;;;1.95;0.90;;;;;;;16.12;91.71;96591.97;5073781;28;20037;-73
2021/06/24 03:26:44;;;;;;;0.95;0.95;;;;;;;16.11;91.58;96588.53;5072231;28;20401;-73
2021/06/24 03:29:10;;;;;;;0.98;0.98;;;;;;;16.12;91.42;96582.16;5073358;28;20059;-73
2021/06/24 03:31:36;;;;;;;1.50;1.00;;;;;;;16.14;91.32;96584.56;5073668;28;20396;-74
2021/06/24 03:34:03;;;;;;;3.25;1.35;;;;;;;16.14;91.10;96577.44;5072931;28;20040;-74
2021/06/24 03:36:29;;;;;;;1.00;1.00;;;;;;;16.13;90.93;96575.84;5073299;28;20040;-74
2021/06/24 03:38:55;;;;;;;1.20;1.08;;;;;;;16.14;91.15;96574.78;5073836;28;20040;-73
2021/06/24 03:41:25;;;;;;;2.75;1.15;;;;;;;16.11;91.21;96570.00;5073422;28;20044;-74
2021/06/24 03:43:53;;;;;;;2.10;1.10;;;;;;;16.11;91.22;96569.22;5073197;28;20029;-73
2021/06/24 03:46:22;;;;;;;1.13;0.90;;;;;;;16.10;91.22;96565.75;5073484;28;20370;-73
2021/06/24 03:48:50;;;;;;;0.98;0.90;;;;;;;16.10;91.39;96571.03;5073189;28;20040;-73
2021/06/24 03:51:16;;;;;;;2.92;1.10;;;;;;;16.11;91.51;96579.81;5072529;28;20048;-74
2021/06/24 03:53:43;;;;;;;0.82;0.75;;;;;;;16.11;91.45;96572.66;5073339;28;20040;-74
2021/06/24 03:56:10;;;;;;;1.10;1.10;;;;;;;16.13;91.57;96577.69;5073483;28;20056;-74
2021/06/24 03:58:36;;;;;;;1.70;1.00;;;;;;;16.11;91.47;96567.38;5072676;28;20485;-74
2021/06/24 04:01:03;;;;;;;1.27;1.17;;;;;;;16.12;91.47;96570.78;5073058;28;20465;-74
2021/06/24 04:03:29;;;;;;;1.30;1.10;;;;;;;16.13;91.72;96573.19;5070149;28;20047;-75
2021/06/24 04:05:55;;;;;;;1.25;1.10;;;;;;;16.15;91.59;96575.59;5073406;28;20040;-74
2021/06/24 04:08:22;;;;;;;1.10;1.00;;;;;;;16.15;91.28;96576.41;5071043;28;20052;-73
2021/06/24 04:10:48;;;;;;;1.05;1.05;;;;;;;16.16;91.22;96572.69;5072852;28;20485;-73
2021/06/24 04:13:14;;;;;;;1.23;1.13;;;;;;;16.16;90.99;96574.53;5072972;28;20045;-73
2021/06/24 04:15:40;;;;;;;1.20;1.10;;;;;;;16.13;91.06;96573.19;5055218;28;20481;-73
2021/06/24 04:18:07;;;;;;;1.00;1.00;;;;;;;16.13;91.08;96572.41;5073124;28;20042;-73
2021/06/24 04:20:35;;;;;;;1.20;1.10;;;;;;;16.14;91.57;96572.13;5073062;28;20028;-73
2021/06/24 04:23:03;;;;;;;1.45;1.35;;;;;;;16.16;91.63;96569.25;5072728;28;20497;-73
2021/06/24 04:25:29;;;;;;;1.70;1.08;;;;;;;16.18;91.85;96556.56;5072834;28;20071;-72
2021/06/24 04:27:58;;;;;;;1.30;1.10;;;;;;;16.18;91.74;96559.22;5073078;28;20046;-73
2021/06/24 04:30:25;;;;;;;1.05;1.05;;;;;;;16.20;91.52;96557.91;5073516;28;20039;-73
2021/06/24 04:32:52;;;;;;;1.25;1.23;;;;;;;16.23;91.35;96559.25;5072864;28;20036;-73
2021/06/24 04:35:19;;;;;;;1.02;1.00;;;;;;;16.27;91.73;96559.56;5072929;28;20048;-73
2021/06/24 04:37:45;;;;;;;0.80;0.80;;;;;;;16.28;91.57;96563.81;5072682;28;20029;-73
2021/06/24 04:40:12;;;;;;;1.50;0.95;;;;;;;16.36;91.75;96563.34;5072885;28;20036;-73
2021/06/24 04:42:38;;;;;;;1.35;1.20;;;;;;;16.43;91.51;96556.00;5072812;28;20483;-73
2021/06/24 04:45:07;;;;;;;1.02;1.02;;;;;;;16.45;91.43;96540.66;5073033;28;20036;-73
2021/06/24 04:47:33;;;;;;;1.15;1.15;;;;;;;16.49;91.16;96541.75;5072578;28;20048;-73
2021/06/24 04:50:00;;;;;;;1.17;1.15;;;;;;;16.51;91.26;96539.66;5072763;28;20032;-74
2021/06/24 04:52:26;;;;;;;1.08;1.08;;;;;;;16.54;91.09;96533.84;5071964;28;20051;-76
2021/06/24 04:54:52;;;;;;;1.67;1.10;;;;;;;16.59;90.99;96536.53;5068889;28;20063;-74
2021/06/24 04:57:18;;;;;;;3.53;1.38;;;;;;;16.64;91.08;96533.91;5071260;28;20036;-73
2021/06/24 04:59:45;;;;;;;1.10;1.10;;;;;;;16.68;90.85;96534.22;5068005;28;20068;-73
2021/06/24 05:02:11;;;;;;;1.00;1.00;;;;;;;16.72;90.65;96530.00;5075402;28;20036;-73
2021/06/24 05:04:37;;;;;;;1.10;1.10;;;;;;;16.74;90.40;96533.19;5076264;28;20052;-73
2021/06/24 05:07:08;;;;;;;1.10;1.10;;;;;;;16.77;90.52;96524.72;5076230;28;20041;-73
2021/06/24 05:09:39;;;;;;;1.48;1.00;;;;;;;16.77;90.53;96516.78;5059246;28;20388;-73
2021/06/24 05:12:09;;;;;;;1.17;1.08;;;;;;;16.77;90.40;96514.13;5076491;28;20040;-73
2021/06/24 05:14:38;;;;;;;1.15;1.15;;;;;;;16.80;90.03;96520.78;5061332;28;20064;-73
2021/06/24 05:17:05;;;;;;;1.15;1.15;;;;;;;16.86;90.08;96525.06;5074674;28;20032;-76
2021/06/24 05:19:33;;;;;;;1.15;1.05;;;;;;;17.21;90.79;96524.47;5076030;28;20060;-73
2021/06/24 05:22:00;;;;;;;1.52;1.20;;;;;;;17.70;90.51;96519.88;5075472;28;20052;-73
2021/06/24 05:24:26;;;;;;;1.45;1.10;;;;;;;18.17;89.69;96529.56;5076191;28;20393;-72
2021/06/24 05:26:52;;;;;;;2.35;1.20;;;;;;;18.63;87.88;96529.56;5076105;28;20044;-73
2021/06/24 05:29:18;;;;;;;1.35;0.90;;;;;;;19.02;86.52;96528.97;5075733;28;20036;-73
2021/06/24 05:31:45;;;;;;;2.42;0.98;;;;;;;19.34;85.00;96533.97;5075875;28;20091;-73
2021/06/24 05:34:12;;;;;;;1.00;1.00;;;;;;;19.63;83.60;96528.78;5075805;28;20032;-73
2021/06/24 05:36:38;;;;;;;0.88;0.80;;;;;;;19.93;82.40;96531.56;5074653;28;20036;-73
2021/06/24 05:39:05;;;;;;;0.75;0.75;;;;;;;20.05;80.66;96540.00;5075813;28;20059;-73
2021/06/24 05:41:32;;;;;;;1.10;1.10;;;;;;;19.87;79.04;96546.78;5075551;28;20048;-73
2021/06/24 05:43:58;;;;;;;0.73;0.73;;;;;;;19.56;78.43;96551.41;5075946;28;20378;-73
2021/06/24 05:46:25;;;;;;;0.90;0.90;;;;;;;19.26;78.14;96553.13;5075429;28;20044;-74
2021/06/24 05:48:52;;;;;;;0.65;0.65;;;;;;;19.00;78.07;96545.22;5075532;28;20033;-73
2021/06/24 05:51:19;;;;;;;1.02;0.88;;;;;;;18.80;78.04;96559.31;5075856;28;20056;-73
2021/06/24 05:53:45;;;;;;;1.27;1.00;;;;;;;18.64;78.55;96555.06;5075265;28;20036;-73
2021/06/24 05:56:11;;;;;;;0.80;0.80;;;;;;;18.49;78.75;96560.38;5075114;28;20057;-73
2021/06/24 05:58:38;;;;;;;0.90;0.90;;;;;;;18.39;78.79;96553.19;5075393;28;20052;-74
2021/06/24 06:01:04;;;;;;;1.30;1.20;;;;;;;18.31;78.86;96561.69;5072761;28;20412;-74
2021/06/24 06:03:30;;;;;;;1.48;1.10;;;;;;;18.26;79.03;96565.91;5057067;28;20028;-74
2021/06/24 06:05:56;;;;;;;3.13;1.10;;;;;;;18.25;79.17;96568.84;5075010;28;20067;-73
2021/06/24 06:08:23;;;;;;;1.17;1.13;;;;;;;18.24;79.38;96565.38;5074935;28;20044;-74
2021/06/24 06:10:49;;;;;;;1.02;1.00;;;;;;;18.25;79.46;96564.34;5075189;28;20044;-73
2021/06/24 06:13:16;;;;;;;1.05;0.80;;;;;;;18.16;78.53;96567.75;5074367;28;20037;-74
2021/06/24 06:15:44;;;;;;;1.35;1.25;;;;;;;18.12;79.12;96569.34;5074159;28;20397;-74
2021/06/24 06:18:13;;;;;;;1.00;0.90;;;;;;;18.12;79.32;96574.66;5072989;28;20474;-74
2021/06/24 06:20:41;;;;;;;2.15;1.10;;;;;;;18.14;79.40;96568.06;5074662;28;20040;-74
2021/06/24 06:23:07;;;;;;;0.90;0.90;;;;;;;18.16;78.96;96562.47;5074927;28;20397;-74
2021/06/24 06:25:33;;;;;;;1.67;1.10;;;;;;;18.31;79.09;96564.34;5074448;28;20040;-74
2021/06/24 06:28:00;;;;;;;1.23;0.90;;;;;;;18.50;78.74;96564.59;5074180;28;20044;-74
2021/06/24 06:30:26;;;;;;;2.22;1.15;;;;;;;18.64;78.74;96563.00;5074636;28;20040;-73
2021/06/24 06:32:53;;;;;;;1.10;1.10;;;;;;;18.73;78.60;96550.81;5073896;28;20045;-73
2021/06/24 06:35:20;;;;;;;1.15;1.15;;;;;;;18.95;78.77;96553.19;5086659;28;20048;-74
2021/06/24 06:37:46;;;;;;;1.02;1.02;;;;;;;19.57;78.46;96561.78;5074627;28;20033;-73
2021/06/24 06:40:12;;;;;;;1.05;1.05;;;;;;;20.07;76.94;96549.31;5074434;28;20040;-73
2021/06/24 06:42:40;;;;;;;1.10;1.10;;;;;;;20.46;75.85;96539.72;5073304;28;20048;-73
2021/06/24 06:45:07;;;;;;;2.78;1.25;;;;;;;20.90;74.50;96549.50;5074228;28;20055;-73
2021/06/24 06:47:34;;;;;;;1.73;1.00;;;;;;;21.19;73.36;96557.47;5074650;28;20044;-73
2021/06/24 06:50:01;;;;;;;0.85;0.85;;;;;;;21.45;72.54;96551.88;5073050;28;20103;-73
2021/06/24 06:52:27;;;;;;;0.98;0.98;;;;;;;21.32;71.50;96552.53;5074319;28;20400;-73
2021/06/24 06:54:53;;;;;;;4.45;1.02;;;;;;;21.15;71.42;96548.44;5074338;28;20048;-73
2021/06/24 06:57:20;;;;;;;0.77;0.77;;;;;;;21.13;71.42;96553.25;5072694;28;20059;-74
2021/06/24 06:59:46;;;;;;;0.90;0.90;;;;;;;21.01;71.18;96545.63;5073521;28;20473;-73
2021/06/24 07:02:13;;;;;;;1.10;1.00;;;;;;;21.04;71.30;96542.44;5074428;28;20413;-73
2021/06/24 07:04:40;;;;;;;1.00;1.00;;;;;;;21.36;71.09;96540.22;5073109;28;20032;-73
2021/06/24 07:07:18;;;;;;;1.45;1.08;;;;;;;21.61;70.00;96539.16;5066601;28;20499;-73
2021/06/24 07:09:44;;;;;;;0.93;0.93;;;;;;;21.77;69.35;96540.50;5073751;28;20036;-74
2021/06/24 07:12:11;;;;;;;1.92;0.98;;;;;;;21.82;68.70;96545.00;5073984;28;20044;-73
2021/06/24 07:14:38;;;;;;;0.93;0.93;;;;;;;21.84;68.32;96540.19;5072867;28;20043;-73
2021/06/24 07:17:05;;;;;;;1.08;0.90;;;;;;;21.92;67.93;96542.19;5073246;28;20048;-73
2021/06/24 07:19:31;;;;;;;0.98;0.98;;;;;;;22.06;67.53;96542.25;5073358;28;20049;-74
2021/06/24 07:21:57;;;;;;;1.02;0.85;;;;;;;22.36;66.86;96548.25;5073416;28;20049;-73
2021/06/24 07:24:23;;;;;;;1.83;0.95;;;;;;;22.44;66.41;96552.94;5072834;28;20055;-73
2021/06/24 07:26:50;;;;;;;0.90;0.90;;;;;;;22.17;66.18;96562.38;5073781;28;20362;-73
2021/06/24 07:29:16;;;;;;;0.82;0.82;;;;;;;21.81;66.38;96560.22;5073770;28;20032;-74
2021/06/24 07:31:42;;;;;;;0.77;0.77;;;;;;;21.47;66.91;96563.06;5073813;28;20029;-73
2021/06/24 07:34:09;;;;;;;1.58;0.90;;;;;;;21.25;67.50;96571.53;5073522;28;20040;-73
2021/06/24 07:36:35;;;;;;;1.98;1.15;;;;;;;21.38;67.78;96568.19;5073815;28;20041;-73
2021/06/24 07:39:01;;;;;;;1.08;1.08;;;;;;;21.71;67.78;96568.34;5072388;28;20059;-74
2021/06/24 07:41:27;;;;;;;1.02;0.90;;;;;;;22.10;67.39;96565.44;5073241;28;20036;-74
2021/06/24 07:43:54;;;;;;;0.90;0.90;;;;;;;22.41;66.32;96569.56;5072055;28;20032;-73
2021/06/24 07:46:20;;;;;;;0.73;0.73;;;;;;;22.60;65.84;96575.69;5073366;28;20045;-73
2021/06/24 07:48:49;;;;;;;1.13;1.00;;;;;;;22.79;65.42;96569.50;5073218;28;20043;-73
2021/06/24 07:51:18;;;;;;;0.80;0.80;;;;;;;22.96;64.43;96561.72;5073109;28;20039;-73
2021/06/24 07:53:44;;;;;;;0.90;0.90;;;;;;;23.17;63.92;96562.16;5073221;28;20036;-73
2021/06/24 07:56:13;;;;;;;0.77;0.77;;;;;;;23.46;63.38;96567.22;5073057;28;20060;-73
2021/06/24 07:58:39;;;;;;;1.25;1.00;;;;;;;23.50;62.37;96562.09;5073353;28;20140;-74
2021/06/24 08:01:06;;;;;;;0.80;0.80;;;;;;;23.49;61.94;96571.97;5073355;28;20037;-74
2021/06/24 08:03:34;;;;;;;1.23;0.80;;;;;;;23.68;61.76;96555.00;5072894;28;20064;-73
2021/06/24 08:06:02;;;;;;;0.88;0.88;;;;;;;23.85;60.59;96557.88;5072847;28;20033;-73
2021/06/24 08:08:28;;;;;;;0.90;0.90;;;;;;;24.01;60.53;96561.03;5072595;28;20042;-73
2021/06/24 08:10:56;;;;;;;0.73;0.70;;;;;;;24.23;59.54;96557.63;5060558;28;20048;-72
2021/06/24 08:13:27;;;;;;;0.77;0.77;;;;;;;24.40;58.88;96553.47;5073156;28;20032;-73
2021/06/24 08:15:54;;;;;;;0.70;0.70;;;;;;;23.99;58.30;96552.50;5073208;28;20400;-74
2021/06/24 08:18:21;;;;;;;0.70;0.70;;;;;;;23.56;58.67;96566.25;5073127;28;20475;-73
2021/06/24 08:20:48;;;;;;;1.77;0.73;;;;;;;23.09;59.33;96568.97;5073166;28;20032;-74
2021/06/24 08:23:15;;;;;;;0.60;0.60;;;;;;;22.88;59.91;96578.44;5072952;28;20040;-73
2021/06/24 08:25:42;;;;;;;0.88;0.88;;;;;;;22.66;60.16;96579.06;5073229;28;20465;-73
2021/06/24 08:28:10;;;;;;;0.85;0.85;;;;;;;22.58;60.34;96583.19;5072801;28;20377;-73
2021/06/24 08:30:41;;;;;;;0.70;0.70;;;;;;;22.44;60.58;96587.69;5072682;28;20488;-74
2021/06/24 08:33:08;;;;;;;0.75;0.75;;;;;;;22.31;60.65;96586.53;5072810;28;20074;-74
2021/06/24 08:35:35;;;;;;;0.80;0.80;;;;;;;22.33;60.46;96588.94;5072925;28;20043;-73
2021/06/24 08:38:01;;;;;;;0.90;0.90;;;;;;;22.19;60.45;96586.94;5076833;28;20045;-73
2021/06/24 08:40:28;;;;;;;0.88;0.88;;;;;;;22.03;60.53;96597.06;5076867;28;20041;-73
2021/06/24 08:42:54;;;;;;;1.02;1.00;;;;;;;21.94;60.87;96601.44;5076766;28;20040;-73
2021/06/24 08:45:21;;;;;;;1.23;0.98;;;;;;;21.99;61.13;96601.38;5076221;28;20048;-73
2021/06/24 08:47:50;;;;;;;0.90;0.90;;;;;;;21.87;61.13;96599.13;5076526;28;20043;-74
2021/06/24 08:50:17;;;;;;;0.90;0.90;;;;;;;21.73;61.23;96605.44;5076587;28;20035;-73
2021/06/24 08:53:20;;;;;;;0.90;0.90;;;;;;;21.60;61.86;96606.94;5019451;28;20371;-73
2021/06/24 08:55:56;;;;;;;0.98;0.98;;;;;;;21.67;61.90;96604.69;5066935;28;20044;-73
2021/06/24 08:58:24;;;;;;;1.73;0.80;;;;;;;22.09;61.68;96605.81;5076342;28;20059;-74
2021/06/24 09:00:54;;;;;;;0.70;0.70;;;;;;;22.35;60.76;96592.91;5076016;28;20048;-73
2021/06/24 09:03:30;;;;;;;1.20;1.13;;;;;;;22.34;60.32;96593.19;5076375;28;20115;-74
2021/06/24 09:06:16;;;;;;;0.90;0.90;;;;;;;22.21;60.13;96584.00;5077795;28;20071;-73
2021/06/24 09:08:47;;;;;;;0.88;0.88;;;;;;;22.08;60.12;96591.63;5076237;28;20461;-73
2021/06/24 09:11:25;;;;;;;0.80;0.80;;;;;;;22.02;61.50;96600.78;5076767;28;20041;-74
2021/06/24 09:14:06;;;;;;;0.95;0.93;;;;;;;22.03;59.04;96586.38;5067603;28;20036;-73
2021/06/24 09:16:35;;;;;;;1.00;1.00;;;;;;;21.74;60.54;96599.81;5076505;28;20385;-74
2021/06/24 09:19:34;;;;;;;0.95;0.90;;;;;;;21.56;59.03;96585.34;5076381;28;20041;-74
2021/06/24 09:22:08;;;;;;;0.82;0.82;;;;;;;21.32;61.34;96601.34;5053221;28;20045;-73
2021/06/24 09:24:47;;;;;;;0.75;0.75;;;;;;;21.19;61.21;96596.69;5076766;28;20048;-73
2021/06/24 09:27:19;;;;;;;0.95;0.90;;;;;;;21.18;62.22;96609.19;5075528;28;20048;-73
2021/06/24 09:30:01;;;;;;;0.85;0.85;;;;;;;21.00;61.74;96601.94;5075825;28;20021;-74
2021/06/24 09:32:43;;;;;;;0.70;0.70;;;;;;;20.85;61.96;96603.66;5075916;28;20032;-73
2021/06/24 09:35:20;;;;;;;2.65;1.20;;;;;;;20.79;63.07;96601.28;5076418;28;20490;-73
2021/06/24 09:38:10;;;;;;;0.80;0.80;;;;;;;20.96;62.21;96598.25;5067789;28;20388;-73
2021/06/24 09:40:55;;;;;;;0.80;0.80;;;;;;;21.03;62.56;96599.47;5075594;28;20325;-74
2021/06/24 09:43:24;;;;;;;0.70;0.70;;;;;;;21.00;62.87;96602.72;5075184;28;20047;-74
2021/06/24 09:46:14;;;;;;;0.82;0.55;;;;;;;21.05;63.47;96605.31;5075484;28;20381;-73
2021/06/24 09:48:45;;;;;;;0.82;0.82;;;;;;;21.02;62.70;96600.56;5062879;28;20377;-74
2021/06/24 09:51:23;;;;;;;0.82;0.82;;;;;;;20.79;63.11;96604.78;5075491;28;20028;-73
2021/06/24 09:53:56;;;;;;;3.70;0.80;;;;;;;20.65;63.39;96611.81;5075333;28;20039;-73
2021/06/24 09:56:25;;;;;;;0.80;0.80;;;;;;;20.57;63.48;96618.47;5075711;28;20052;-73
2021/06/24 09:58:53;;;;;;;1.20;0.85;;;;;;;20.64;63.99;96605.69;5059623;28;20418;-73
2021/06/24 10:01:37;;;;;;;0.60;0.60;;;;;;;20.78;64.07;96613.03;5075136;28;20032;-73
2021/06/24 10:04:16;;;;;;;0.90;0.90;;;;;;;20.84;63.93;96611.91;5074827;28;20048;-74
2021/06/24 10:06:43;;;;;;;0.70;0.70;;;;;;;20.94;64.15;96614.50;5075456;28;20477;-73
2021/06/24 10:09:11;;;;;;;0.80;0.80;;;;;;;20.96;64.11;96609.69;5075022;28;20051;-73
2021/06/24 10:11:37;;;;;;;0.80;0.80;;;;;;;20.93;63.95;96607.56;5074066;28;20464;-73
2021/06/24 10:14:05;;;;;;;0.70;0.70;;;;;;;20.91;64.07;96607.06;5075157;28;20037;-74
2021/06/24 10:16:32;;;;;;;0.68;0.68;;;;;;;20.91;64.14;96603.59;5075101;28;20396;-73
2021/06/24 10:18:59;;;;;;;1.67;0.80;;;;;;;20.99;64.26;96603.00;5073907;28;20032;-73
2021/06/24 10:21:28;;;;;;;1.00;1.00;;;;;;;21.00;63.85;96604.59;5075070;28;20043;-74
2021/06/24 10:24:02;;;;;;;0.77;0.77;;;;;;;20.87;63.35;96603.34;5074949;28;20044;-74
2021/06/24 10:26:31;;;;;;;0.80;0.80;;;;;;;20.78;64.07;96611.16;5075073;28;20044;-74
2021/06/24 10:29:16;;;;;;;1.20;0.85;;;;;;;20.89;65.20;96606.53;5074813;28;20044;-73
2021/06/24 10:31:51;;;;;;;1.02;0.60;;;;;;;20.92;63.35;96603.31;5074528;28;20036;-73
2021/06/24 10:34:18;;;;;;;0.50;0.50;;;;;;;20.75;63.88;96608.28;5074223;28;20059;-74
2021/06/24 10:37:15;;;;;;;0.73;0.73;;;;;;;20.65;63.10;96606.47;5074971;28;20059;-74
2021/06/24 10:39:43;;;;;;;0.73;0.65;;;;;;;20.67;64.27;96602.44;5074461;28;20028;-74
2021/06/24 10:42:11;;;;;;;0.60;0.60;;;;;;;20.74;63.92;96601.34;5074451;28;20036;-73
2021/06/24 10:44:46;;;;;;;1.00;0.60;;;;;;;20.82;62.54;96585.53;5074301;28;20040;-73
2021/06/24 10:47:14;;;;;;;0.52;0.40;;;;;;;20.95;63.53;96591.28;5074412;28;20036;-73
2021/06/24 10:49:40;;;;;;;0.50;0.50;;;;;;;21.16;63.45;96591.91;5074696;28;20033;-74
2021/06/24 10:52:26;;;;;;;0.52;0.52;;;;;;;21.40;62.74;96583.94;5074457;28;20381;-74
2021/06/24 10:54:59;;;;;;;0.40;0.40;;;;;;;21.29;61.90;96577.88;5074468;28;20045;-74
2021/06/24 10:57:39;;;;;;;0.50;0.50;;;;;;;21.17;62.55;96580.97;5073259;28;20040;-73
2021/06/24 11:00:43;;;;;;;1.55;0.45;;;;;;;21.16;62.88;96579.34;5074495;28;20040;-73
2021/06/24 11:03:23;;;;;;;0.52;0.50;;;;;;;21.21;62.69;96591.88;5063461;28;20036;-74
2021/06/24 11:05:53;;;;;;;0.38;0.38;;;;;;;21.05;62.00;96585.88;5058319;28;20040;-73
2021/06/24 11:08:29;;;;;;;0.63;0.57;;;;;;;20.93;60.29;96585.44;5073639;28;20041;-73
2021/06/24 11:11:07;;;;;;;0.20;0.20;;;;;;;20.78;61.57;96595.16;5074123;28;20427;-73
2021/06/24 11:16:03;;;;;;;0.28;0.28;;;;;;;20.72;61.99;96596.28;5073977;28;20032;-74
2021/06/24 11:18:36;;;;;;;1.75;0.38;;;;;;;20.53;61.02;96582.81;5073463;28;20040;-73
2021/06/24 11:21:03;;;;;;;0.40;0.40;;;;;;;20.39;61.54;96593.31;5073798;28;20033;-74
2021/06/24 11:23:34;;;;;;;1.00;0.43;;;;;;;20.32;61.97;96581.38;5073841;28;20397;-74
2021/06/24 11:26:05;;;;;;;0.40;0.30;;;;;;;20.26;63.66;96585.94;5073922;28;20469;-74
2021/06/24 11:28:41;;;;;;;0.40;0.40;;;;;;;20.36;62.82;96571.75;5073369;28;20041;-74
2021/06/24 11:31:07;;;;;;;0.40;0.40;;;;;;;20.50;62.28;96561.28;5073473;28;20040;-74
2021/06/24 11:33:38;;;;;;;0.30;0.30;;;;;;;20.64;62.04;96557.72;5073474;28;20041;-74
2021/06/24 11:36:17;;;;;;;0.40;0.40;;;;;;;20.96;62.22;96551.03;5073825;28;20111;-73
2021/06/24 11:38:44;;;;;;;0.40;0.40;;;;;;;21.23;61.65;96547.81;5073290;28;20036;-73
2021/06/24 11:41:11;;;;;;;0.75;0.40;;;;;;;21.63;61.38;96540.44;5073165;28;20048;-74
2021/06/24 11:43:39;;;;;;;0.50;0.50;;;;;;;22.15;60.92;96529.06;5073919;28;20349;-73